KLSE

La Crosse Regional Airport

La Crosse, Wisconsin, USA
METAR KLSE 212153Z 21011KT 10SM CLR 12/M04 A3002 RMK AO2 SLP171 T01221039
Observed Flight Rules
Oct-21 @ 21:53 UTC (19 minutes ago) Visual Flight Rules
Wind Visibility Clouds
210° at 11 knots 10 miles
  • Clear skies
Temperatures Readings
Current 12°C / 54°F
Dewpoint -4°C / 25°F
Humidity 33%
Altimeter 30.02" Hg
Pressure 1017.1 hPa
Elevation 199
METAR KLSE 212153Z 21011KT 10SM CLR 12/M04 A3002 RMK AO2 SLP171 T01221039
Observed Flight Rules
Oct-21 @ 21:53 UTC
(19 minutes ago)
VFR
Wind Visibility
210° at 11 knots 10 miles
Clouds
  • Clear skies
Temperature Dewpoint
12°C / 54°F -4°C / 25°F
Humidity Altimeter Pressure
33% 30.02" Hg 1017.1 hPa